sensor_id;sensor_type;location;lat;lon;timestamp;P1;durP1;ratioP1;P2;durP2;ratioP2
15516;SDS011;7860;52.030;5.572;2023-11-18T00:01:03;44.36;;;22.58;;
15516;SDS011;7860;52.030;5.572;2023-11-18T00:01:24;42.18;;;23.04;;
15516;SDS011;7860;52.030;5.572;2023-11-18T00:02:24;42.81;;;23.39;;
15516;SDS011;7860;52.030;5.572;2023-11-18T00:03:24;40.25;;;22.63;;
15516;SDS011;7860;52.030;5.572;2023-11-18T00:04:24;41.11;;;22.71;;
15516;SDS011;7860;52.030;5.572;2023-11-18T00:05:25;37.14;;;20.96;;
15516;SDS011;7860;52.030;5.572;2023-11-18T00:06:25;40.83;;;22.28;;
15516;SDS011;7860;52.030;5.572;2023-11-18T00:07:25;36.79;;;20.15;;
15516;SDS011;7860;52.030;5.572;2023-11-18T00:08:25;39.26;;;20.56;;
15516;SDS011;7860;52.030;5.572;2023-11-18T00:09:26;36.05;;;20.69;;
15516;SDS011;7860;52.030;5.572;2023-11-18T00:10:26;38.31;;;20.51;;
15516;SDS011;7860;52.030;5.572;2023-11-18T00:11:26;41.38;;;21.45;;
15516;SDS011;7860;52.030;5.572;2023-11-18T00:12:27;41.67;;;20.73;;
15516;SDS011;7860;52.030;5.572;2023-11-18T00:13:27;38.69;;;20.57;;
15516;SDS011;7860;52.030;5.572;2023-11-18T00:14:27;38.91;;;20.83;;
15516;SDS011;7860;52.030;5.572;2023-11-18T00:15:27;39.81;;;20.93;;
15516;SDS011;7860;52.030;5.572;2023-11-18T00:16:28;37.80;;;20.46;;
15516;SDS011;7860;52.030;5.572;2023-11-18T00:17:28;36.21;;;19.63;;
15516;SDS011;7860;52.030;5.572;2023-11-18T00:18:29;36.93;;;19.73;;
15516;SDS011;7860;52.030;5.572;2023-11-18T00:19:29;39.64;;;20.93;;
15516;SDS011;7860;52.030;5.572;2023-11-18T00:20:29;35.75;;;19.14;;
15516;SDS011;7860;52.030;5.572;2023-11-18T00:21:29;35.17;;;19.35;;
15516;SDS011;7860;52.030;5.572;2023-11-18T00:22:29;35.82;;;19.63;;
15516;SDS011;7860;52.030;5.572;2023-11-18T00:23:29;37.06;;;20.17;;
15516;SDS011;7860;52.030;5.572;2023-11-18T00:24:30;37.01;;;20.44;;
15516;SDS011;7860;52.030;5.572;2023-11-18T00:25:30;40.11;;;20.41;;
15516;SDS011;7860;52.030;5.572;2023-11-18T00:26:30;37.02;;;19.82;;
15516;SDS011;7860;52.030;5.572;2023-11-18T00:27:30;38.10;;;20.09;;
15516;SDS011;7860;52.030;5.572;2023-11-18T00:28:31;41.25;;;21.00;;
15516;SDS011;7860;52.030;5.572;2023-11-18T00:29:31;41.13;;;21.27;;
15516;SDS011;7860;52.030;5.572;2023-11-18T00:30:31;38.63;;;20.47;;
15516;SDS011;7860;52.030;5.572;2023-11-18T00:31:32;39.62;;;20.34;;
15516;SDS011;7860;52.030;5.572;2023-11-18T00:32:32;38.00;;;19.59;;
15516;SDS011;7860;52.030;5.572;2023-11-18T00:33:32;39.74;;;20.65;;
15516;SDS011;7860;52.030;5.572;2023-11-18T00:34:33;37.31;;;19.82;;
15516;SDS011;7860;52.030;5.572;2023-11-18T00:35:33;39.62;;;20.15;;
15516;SDS011;7860;52.030;5.572;2023-11-18T00:36:34;38.32;;;20.28;;
15516;SDS011;7860;52.030;5.572;2023-11-18T00:37:34;37.80;;;19.50;;
15516;SDS011;7860;52.030;5.572;2023-11-18T00:38:34;38.26;;;20.89;;
15516;SDS011;7860;52.030;5.572;2023-11-18T00:39:35;38.56;;;20.17;;
15516;SDS011;7860;52.030;5.572;2023-11-18T00:40:35;37.13;;;19.89;;
15516;SDS011;7860;52.030;5.572;2023-11-18T00:41:35;33.27;;;18.12;;
15516;SDS011;7860;52.030;5.572;2023-11-18T00:42:35;36.16;;;19.67;;
15516;SDS011;7860;52.030;5.572;2023-11-18T00:43:36;37.81;;;19.33;;
15516;SDS011;7860;52.030;5.572;2023-11-18T00:44:36;38.53;;;21.15;;
15516;SDS011;7860;52.030;5.572;2023-11-18T00:45:36;40.55;;;20.57;;
15516;SDS011;7860;52.030;5.572;2023-11-18T00:46:36;38.28;;;20.33;;
15516;SDS011;7860;52.030;5.572;2023-11-18T00:47:36;40.15;;;20.53;;
15516;SDS011;7860;52.030;5.572;2023-11-18T00:48:36;38.77;;;20.15;;
15516;SDS011;7860;52.030;5.572;2023-11-18T00:49:37;36.31;;;19.73;;
15516;SDS011;7860;52.030;5.572;2023-11-18T00:50:37;39.17;;;21.31;;
15516;SDS011;7860;52.030;5.572;2023-11-18T00:51:37;40.91;;;20.72;;
15516;SDS011;7860;52.030;5.572;2023-11-18T00:52:37;42.01;;;22.16;;
15516;SDS011;7860;52.030;5.572;2023-11-18T00:53:38;40.81;;;20.87;;
15516;SDS011;7860;52.030;5.572;2023-11-18T00:54:38;42.72;;;20.80;;
15516;SDS011;7860;52.030;5.572;2023-11-18T00:55:38;42.40;;;21.69;;
15516;SDS011;7860;52.030;5.572;2023-11-18T00:56:38;41.66;;;22.21;;
15516;SDS011;7860;52.030;5.572;2023-11-18T00:57:39;42.60;;;22.47;;
15516;SDS011;7860;52.030;5.572;2023-11-18T00:58:39;44.16;;;22.46;;
15516;SDS011;7860;52.030;5.572;2023-11-18T00:59:41;42.97;;;22.40;;
15516;SDS011;7860;52.030;5.572;2023-11-18T01:00:39;46.74;;;22.92;;
15516;SDS011;7860;52.030;5.572;2023-11-18T01:01:40;46.14;;;22.45;;
15516;SDS011;7860;52.030;5.572;2023-11-18T01:02:40;50.08;;;22.36;;
15516;SDS011;7860;52.030;5.572;2023-11-18T01:03:40;47.44;;;23.68;;
15516;SDS011;7860;52.030;5.572;2023-11-18T01:04:40;46.20;;;23.75;;
15516;SDS011;7860;52.030;5.572;2023-11-18T01:05:40;48.11;;;24.98;;
15516;SDS011;7860;52.030;5.572;2023-11-18T01:06:41;51.05;;;25.41;;
15516;SDS011;7860;52.030;5.572;2023-11-18T01:07:42;47.91;;;24.91;;
15516;SDS011;7860;52.030;5.572;2023-11-18T01:08:43;51.26;;;25.47;;
15516;SDS011;7860;52.030;5.572;2023-11-18T01:09:42;56.72;;;26.97;;
15516;SDS011;7860;52.030;5.572;2023-11-18T01:10:43;55.11;;;27.81;;
15516;SDS011;7860;52.030;5.572;2023-11-18T01:11:43;53.93;;;28.49;;
15516;SDS011;7860;52.030;5.572;2023-11-18T01:12:44;54.45;;;27.30;;
15516;SDS011;7860;52.030;5.572;2023-11-18T01:13:44;53.82;;;27.49;;
15516;SDS011;7860;52.030;5.572;2023-11-18T01:14:45;56.43;;;27.09;;
15516;SDS011;7860;52.030;5.572;2023-11-18T01:15:45;56.43;;;28.02;;
15516;SDS011;7860;52.030;5.572;2023-11-18T01:16:46;63.77;;;29.97;;
15516;SDS011;7860;52.030;5.572;2023-11-18T01:17:46;58.11;;;28.37;;
15516;SDS011;7860;52.030;5.572;2023-11-18T01:18:46;52.67;;;27.93;;
15516;SDS011;7860;52.030;5.572;2023-11-18T01:19:46;62.30;;;29.45;;
15516;SDS011;7860;52.030;5.572;2023-11-18T01:20:47;56.95;;;29.26;;
15516;SDS011;7860;52.030;5.572;2023-11-18T01:21:47;63.53;;;30.41;;
15516;SDS011;7860;52.030;5.572;2023-11-18T01:22:47;62.27;;;30.06;;
15516;SDS011;7860;52.030;5.572;2023-11-18T01:23:48;63.04;;;30.37;;
15516;SDS011;7860;52.030;5.572;2023-11-18T01:24:48;65.72;;;31.61;;
15516;SDS011;7860;52.030;5.572;2023-11-18T01:25:48;61.45;;;30.95;;
15516;SDS011;7860;52.030;5.572;2023-11-18T01:26:48;71.43;;;32.71;;
15516;SDS011;7860;52.030;5.572;2023-11-18T01:27:49;56.82;;;28.40;;
15516;SDS011;7860;52.030;5.572;2023-11-18T01:28:49;64.85;;;31.94;;
15516;SDS011;7860;52.030;5.572;2023-11-18T01:29:49;64.11;;;31.52;;
15516;SDS011;7860;52.030;5.572;2023-11-18T01:30:50;72.96;;;32.20;;
15516;SDS011;7860;52.030;5.572;2023-11-18T01:31:50;65.45;;;31.17;;
15516;SDS011;7860;52.030;5.572;2023-11-18T01:32:51;65.19;;;31.59;;
15516;SDS011;7860;52.030;5.572;2023-11-18T01:33:51;62.96;;;31.46;;
15516;SDS011;7860;52.030;5.572;2023-11-18T01:34:52;63.58;;;29.83;;
15516;SDS011;7860;52.030;5.572;2023-11-18T01:35:52;61.55;;;27.58;;
15516;SDS011;7860;52.030;5.572;2023-11-18T01:36:53;62.70;;;29.80;;
15516;SDS011;7860;52.030;5.572;2023-11-18T01:37:53;66.00;;;30.03;;
15516;SDS011;7860;52.030;5.572;2023-11-18T01:38:53;66.76;;;30.47;;
15516;SDS011;7860;52.030;5.572;2023-11-18T01:39:54;64.23;;;28.07;;
15516;SDS011;7860;52.030;5.572;2023-11-18T01:40:54;59.83;;;28.81;;
15516;SDS011;7860;52.030;5.572;2023-11-18T01:41:55;65.49;;;29.29;;
15516;SDS011;7860;52.030;5.572;2023-11-18T01:42:55;64.95;;;29.56;;
15516;SDS011;7860;52.030;5.572;2023-11-18T01:43:55;68.23;;;29.85;;
15516;SDS011;7860;52.030;5.572;2023-11-18T01:44:55;58.03;;;28.74;;
15516;SDS011;7860;52.030;5.572;2023-11-18T01:45:55;68.07;;;30.05;;
15516;SDS011;7860;52.030;5.572;2023-11-18T01:46:56;62.73;;;30.07;;
15516;SDS011;7860;52.030;5.572;2023-11-18T01:47:56;66.42;;;29.90;;
15516;SDS011;7860;52.030;5.572;2023-11-18T01:48:56;65.72;;;30.21;;
15516;SDS011;7860;52.030;5.572;2023-11-18T01:49:57;65.70;;;29.74;;
15516;SDS011;7860;52.030;5.572;2023-11-18T01:50:57;67.17;;;30.01;;
15516;SDS011;7860;52.030;5.572;2023-11-18T01:51:57;67.03;;;30.04;;
15516;SDS011;7860;52.030;5.572;2023-11-18T01:52:57;63.10;;;29.36;;
15516;SDS011;7860;52.030;5.572;2023-11-18T01:53:57;60.63;;;27.88;;
15516;SDS011;7860;52.030;5.572;2023-11-18T01:54:58;66.40;;;29.05;;
15516;SDS011;7860;52.030;5.572;2023-11-18T01:55:58;70.80;;;29.27;;
15516;SDS011;7860;52.030;5.572;2023-11-18T01:56:58;67.60;;;30.03;;
15516;SDS011;7860;52.030;5.572;2023-11-18T01:57:59;72.62;;;30.00;;
15516;SDS011;7860;52.030;5.572;2023-11-18T01:58:59;67.53;;;30.04;;
15516;SDS011;7860;52.030;5.572;2023-11-18T01:59:59;65.55;;;29.22;;
15516;SDS011;7860;52.030;5.572;2023-11-18T02:00:59;68.00;;;29.53;;
15516;SDS011;7860;52.030;5.572;2023-11-18T02:02:00;74.26;;;30.69;;
15516;SDS011;7860;52.030;5.572;2023-11-18T02:03:00;69.62;;;30.13;;
15516;SDS011;7860;52.030;5.572;2023-11-18T02:04:00;66.86;;;28.89;;
15516;SDS011;7860;52.030;5.572;2023-11-18T02:05:01;64.65;;;29.71;;
15516;SDS011;7860;52.030;5.572;2023-11-18T02:06:02;62.97;;;29.19;;
15516;SDS011;7860;52.030;5.572;2023-11-18T02:07:02;64.43;;;29.23;;
15516;SDS011;7860;52.030;5.572;2023-11-18T02:08:02;61.08;;;27.61;;
15516;SDS011;7860;52.030;5.572;2023-11-18T02:09:03;65.90;;;29.61;;
15516;SDS011;7860;52.030;5.572;2023-11-18T02:10:04;71.13;;;30.02;;
15516;SDS011;7860;52.030;5.572;2023-11-18T02:11:05;65.95;;;29.26;;
15516;SDS011;7860;52.030;5.572;2023-11-18T02:12:08;68.62;;;29.98;;
15516;SDS011;7860;52.030;5.572;2023-11-18T02:13:06;61.54;;;28.66;;
15516;SDS011;7860;52.030;5.572;2023-11-18T02:14:05;69.15;;;30.57;;
15516;SDS011;7860;52.030;5.572;2023-11-18T02:15:06;67.54;;;28.80;;
15516;SDS011;7860;52.030;5.572;2023-11-18T02:16:06;64.17;;;28.95;;
15516;SDS011;7860;52.030;5.572;2023-11-18T02:17:06;67.60;;;28.72;;
15516;SDS011;7860;52.030;5.572;2023-11-18T02:18:06;64.72;;;28.90;;
15516;SDS011;7860;52.030;5.572;2023-11-18T02:19:08;66.27;;;30.67;;
15516;SDS011;7860;52.030;5.572;2023-11-18T02:20:07;60.67;;;28.16;;
15516;SDS011;7860;52.030;5.572;2023-11-18T02:21:07;65.83;;;29.10;;
15516;SDS011;7860;52.030;5.572;2023-11-18T02:22:07;56.75;;;27.67;;
15516;SDS011;7860;52.030;5.572;2023-11-18T02:23:07;58.46;;;27.59;;
15516;SDS011;7860;52.030;5.572;2023-11-18T02:24:08;65.04;;;29.21;;
15516;SDS011;7860;52.030;5.572;2023-11-18T02:25:09;57.69;;;27.18;;
15516;SDS011;7860;52.030;5.572;2023-11-18T02:26:08;54.15;;;27.78;;
15516;SDS011;7860;52.030;5.572;2023-11-18T02:27:08;61.45;;;28.18;;
15516;SDS011;7860;52.030;5.572;2023-11-18T02:28:08;54.90;;;26.04;;
15516;SDS011;7860;52.030;5.572;2023-11-18T02:29:09;59.97;;;27.46;;
15516;SDS011;7860;52.030;5.572;2023-11-18T02:30:11;56.56;;;27.98;;
15516;SDS011;7860;52.030;5.572;2023-11-18T02:31:18;61.49;;;28.32;;
15516;SDS011;7860;52.030;5.572;2023-11-18T02:32:15;55.46;;;27.09;;
15516;SDS011;7860;52.030;5.572;2023-11-18T02:33:11;57.54;;;27.92;;
15516;SDS011;7860;52.030;5.572;2023-11-18T02:34:12;54.37;;;28.03;;
15516;SDS011;7860;52.030;5.572;2023-11-18T02:35:13;58.67;;;27.67;;
15516;SDS011;7860;52.030;5.572;2023-11-18T02:36:14;54.08;;;25.32;;
15516;SDS011;7860;52.030;5.572;2023-11-18T02:37:12;50.56;;;24.47;;
15516;SDS011;7860;52.030;5.572;2023-11-18T02:38:12;50.37;;;25.55;;
15516;SDS011;7860;52.030;5.572;2023-11-18T02:39:14;53.99;;;25.45;;
15516;SDS011;7860;52.030;5.572;2023-11-18T02:40:15;49.60;;;24.41;;
15516;SDS011;7860;52.030;5.572;2023-11-18T02:41:13;51.54;;;25.11;;
15516;SDS011;7860;52.030;5.572;2023-11-18T02:42:14;48.06;;;24.33;;
15516;SDS011;7860;52.030;5.572;2023-11-18T02:43:14;50.41;;;24.77;;
15516;SDS011;7860;52.030;5.572;2023-11-18T02:44:14;52.06;;;24.38;;
15516;SDS011;7860;52.030;5.572;2023-11-18T02:45:14;49.30;;;24.13;;
15516;SDS011;7860;52.030;5.572;2023-11-18T02:46:15;48.56;;;23.79;;
15516;SDS011;7860;52.030;5.572;2023-11-18T02:47:15;48.02;;;24.69;;
15516;SDS011;7860;52.030;5.572;2023-11-18T02:48:15;49.18;;;24.37;;
15516;SDS011;7860;52.030;5.572;2023-11-18T02:49:15;43.88;;;22.67;;
15516;SDS011;7860;52.030;5.572;2023-11-18T02:50:16;49.24;;;24.07;;
15516;SDS011;7860;52.030;5.572;2023-11-18T02:51:16;44.02;;;23.48;;
15516;SDS011;7860;52.030;5.572;2023-11-18T02:52:17;44.23;;;24.22;;
15516;SDS011;7860;52.030;5.572;2023-11-18T02:53:17;46.10;;;23.34;;
15516;SDS011;7860;52.030;5.572;2023-11-18T02:54:17;44.62;;;22.93;;
15516;SDS011;7860;52.030;5.572;2023-11-18T02:55:17;43.04;;;22.74;;
15516;SDS011;7860;52.030;5.572;2023-11-18T02:56:17;48.37;;;24.49;;
15516;SDS011;7860;52.030;5.572;2023-11-18T02:57:18;51.61;;;24.96;;
15516;SDS011;7860;52.030;5.572;2023-11-18T02:58:18;45.35;;;23.15;;
15516;SDS011;7860;52.030;5.572;2023-11-18T02:59:18;50.07;;;24.09;;
15516;SDS011;7860;52.030;5.572;2023-11-18T03:00:18;48.04;;;24.60;;
15516;SDS011;7860;52.030;5.572;2023-11-18T03:01:19;46.00;;;24.19;;
15516;SDS011;7860;52.030;5.572;2023-11-18T03:02:19;47.95;;;24.42;;
15516;SDS011;7860;52.030;5.572;2023-11-18T03:03:19;47.11;;;23.68;;
15516;SDS011;7860;52.030;5.572;2023-11-18T03:04:19;48.37;;;23.58;;
15516;SDS011;7860;52.030;5.572;2023-11-18T03:05:19;45.15;;;22.42;;
15516;SDS011;7860;52.030;5.572;2023-11-18T03:06:20;46.10;;;21.21;;
15516;SDS011;7860;52.030;5.572;2023-11-18T03:07:21;44.19;;;21.37;;
15516;SDS011;7860;52.030;5.572;2023-11-18T03:08:21;43.18;;;22.44;;
15516;SDS011;7860;52.030;5.572;2023-11-18T03:09:22;40.92;;;20.39;;
15516;SDS011;7860;52.030;5.572;2023-11-18T03:10:22;46.25;;;23.05;;
15516;SDS011;7860;52.030;5.572;2023-11-18T03:11:22;42.71;;;21.70;;
15516;SDS011;7860;52.030;5.572;2023-11-18T03:12:22;44.63;;;22.66;;
15516;SDS011;7860;52.030;5.572;2023-11-18T03:13:23;42.31;;;21.93;;
15516;SDS011;7860;52.030;5.572;2023-11-18T03:14:23;44.58;;;22.14;;
15516;SDS011;7860;52.030;5.572;2023-11-18T03:15:23;42.92;;;22.94;;
15516;SDS011;7860;52.030;5.572;2023-11-18T03:16:24;45.88;;;23.19;;
15516;SDS011;7860;52.030;5.572;2023-11-18T03:17:24;45.80;;;22.85;;
15516;SDS011;7860;52.030;5.572;2023-11-18T03:18:25;47.19;;;22.80;;
15516;SDS011;7860;52.030;5.572;2023-11-18T03:19:25;44.78;;;21.49;;
15516;SDS011;7860;52.030;5.572;2023-11-18T03:20:25;43.31;;;21.87;;
15516;SDS011;7860;52.030;5.572;2023-11-18T03:21:26;45.46;;;22.92;;
15516;SDS011;7860;52.030;5.572;2023-11-18T03:22:26;44.96;;;21.60;;
15516;SDS011;7860;52.030;5.572;2023-11-18T03:23:27;47.17;;;22.43;;
15516;SDS011;7860;52.030;5.572;2023-11-18T03:24:27;48.11;;;21.45;;
15516;SDS011;7860;52.030;5.572;2023-11-18T03:25:28;47.24;;;21.49;;
15516;SDS011;7860;52.030;5.572;2023-11-18T03:26:28;47.43;;;22.43;;
15516;SDS011;7860;52.030;5.572;2023-11-18T03:27:29;48.24;;;22.97;;
15516;SDS011;7860;52.030;5.572;2023-11-18T03:28:28;39.80;;;20.51;;
15516;SDS011;7860;52.030;5.572;2023-11-18T03:29:28;41.27;;;21.22;;
15516;SDS011;7860;52.030;5.572;2023-11-18T03:30:28;43.42;;;22.40;;
15516;SDS011;7860;52.030;5.572;2023-11-18T03:31:29;42.31;;;21.74;;
15516;SDS011;7860;52.030;5.572;2023-11-18T03:32:29;47.56;;;22.52;;
15516;SDS011;7860;52.030;5.572;2023-11-18T03:33:30;43.50;;;21.36;;
15516;SDS011;7860;52.030;5.572;2023-11-18T03:34:30;41.98;;;20.99;;
15516;SDS011;7860;52.030;5.572;2023-11-18T03:35:30;43.57;;;21.90;;
15516;SDS011;7860;52.030;5.572;2023-11-18T03:36:31;42.70;;;21.85;;
15516;SDS011;7860;52.030;5.572;2023-11-18T03:37:31;42.49;;;21.97;;
15516;SDS011;7860;52.030;5.572;2023-11-18T03:38:31;45.57;;;22.50;;
15516;SDS011;7860;52.030;5.572;2023-11-18T03:39:31;42.54;;;21.03;;
15516;SDS011;7860;52.030;5.572;2023-11-18T03:40:31;43.13;;;21.47;;
15516;SDS011;7860;52.030;5.572;2023-11-18T03:41:31;43.27;;;21.82;;
15516;SDS011;7860;52.030;5.572;2023-11-18T03:42:31;41.11;;;21.75;;
15516;SDS011;7860;52.030;5.572;2023-11-18T03:43:32;42.79;;;21.68;;
15516;SDS011;7860;52.030;5.572;2023-11-18T03:44:32;44.06;;;22.12;;
15516;SDS011;7860;52.030;5.572;2023-11-18T03:45:32;45.58;;;21.68;;
15516;SDS011;7860;52.030;5.572;2023-11-18T03:46:33;39.92;;;20.91;;
15516;SDS011;7860;52.030;5.572;2023-11-18T03:47:34;45.04;;;22.83;;
15516;SDS011;7860;52.030;5.572;2023-11-18T03:48:34;42.34;;;21.46;;
15516;SDS011;7860;52.030;5.572;2023-11-18T03:49:34;46.00;;;22.73;;
15516;SDS011;7860;52.030;5.572;2023-11-18T03:50:35;45.30;;;22.27;;
15516;SDS011;7860;52.030;5.572;2023-11-18T03:51:35;44.14;;;21.13;;
15516;SDS011;7860;52.030;5.572;2023-11-18T03:52:35;44.57;;;22.37;;
15516;SDS011;7860;52.030;5.572;2023-11-18T03:53:35;44.95;;;22.88;;
15516;SDS011;7860;52.030;5.572;2023-11-18T03:54:35;47.45;;;22.00;;
15516;SDS011;7860;52.030;5.572;2023-11-18T03:55:35;43.72;;;21.79;;
15516;SDS011;7860;52.030;5.572;2023-11-18T03:56:36;51.72;;;22.78;;
15516;SDS011;7860;52.030;5.572;2023-11-18T03:57:36;52.14;;;22.83;;
15516;SDS011;7860;52.030;5.572;2023-11-18T03:58:36;44.16;;;22.31;;
15516;SDS011;7860;52.030;5.572;2023-11-18T03:59:36;43.89;;;22.14;;
15516;SDS011;7860;52.030;5.572;2023-11-18T04:00:36;44.21;;;22.05;;
15516;SDS011;7860;52.030;5.572;2023-11-18T04:01:36;45.32;;;22.07;;
15516;SDS011;7860;52.030;5.572;2023-11-18T04:02:36;49.71;;;23.10;;
15516;SDS011;7860;52.030;5.572;2023-11-18T04:03:37;46.57;;;22.50;;
15516;SDS011;7860;52.030;5.572;2023-11-18T04:04:37;47.28;;;21.73;;
15516;SDS011;7860;52.030;5.572;2023-11-18T04:05:38;45.61;;;22.64;;
15516;SDS011;7860;52.030;5.572;2023-11-18T04:06:38;51.02;;;23.75;;
15516;SDS011;7860;52.030;5.572;2023-11-18T04:07:38;44.61;;;21.99;;
15516;SDS011;7860;52.030;5.572;2023-11-18T04:08:38;50.24;;;23.72;;
15516;SDS011;7860;52.030;5.572;2023-11-18T04:09:39;53.09;;;23.62;;
15516;SDS011;7860;52.030;5.572;2023-11-18T04:10:39;49.80;;;23.02;;
15516;SDS011;7860;52.030;5.572;2023-11-18T04:11:39;50.13;;;23.19;;
15516;SDS011;7860;52.030;5.572;2023-11-18T04:12:39;50.47;;;23.53;;
15516;SDS011;7860;52.030;5.572;2023-11-18T04:13:39;54.97;;;24.23;;
15516;SDS011;7860;52.030;5.572;2023-11-18T04:14:39;51.38;;;23.97;;
15516;SDS011;7860;52.030;5.572;2023-11-18T04:15:39;55.81;;;23.74;;
15516;SDS011;7860;52.030;5.572;2023-11-18T04:16:40;53.10;;;24.18;;
15516;SDS011;7860;52.030;5.572;2023-11-18T04:17:40;52.71;;;24.08;;
15516;SDS011;7860;52.030;5.572;2023-11-18T04:18:41;52.68;;;24.72;;
15516;SDS011;7860;52.030;5.572;2023-11-18T04:19:41;54.58;;;25.34;;
15516;SDS011;7860;52.030;5.572;2023-11-18T04:20:41;50.82;;;24.10;;
15516;SDS011;7860;52.030;5.572;2023-11-18T04:21:41;54.71;;;25.42;;
15516;SDS011;7860;52.030;5.572;2023-11-18T04:22:41;53.52;;;25.03;;
15516;SDS011;7860;52.030;5.572;2023-11-18T04:23:42;54.72;;;24.28;;
15516;SDS011;7860;52.030;5.572;2023-11-18T04:24:42;58.35;;;25.52;;
15516;SDS011;7860;52.030;5.572;2023-11-18T04:25:42;58.71;;;25.58;;
15516;SDS011;7860;52.030;5.572;2023-11-18T04:26:42;55.45;;;25.07;;
15516;SDS011;7860;52.030;5.572;2023-11-18T04:27:42;55.21;;;25.58;;
15516;SDS011;7860;52.030;5.572;2023-11-18T04:28:43;61.13;;;26.87;;
15516;SDS011;7860;52.030;5.572;2023-11-18T04:29:43;54.89;;;25.24;;
15516;SDS011;7860;52.030;5.572;2023-11-18T04:30:43;56.42;;;26.56;;
15516;SDS011;7860;52.030;5.572;2023-11-18T04:31:43;56.96;;;26.27;;
15516;SDS011;7860;52.030;5.572;2023-11-18T04:32:44;60.71;;;26.60;;
15516;SDS011;7860;52.030;5.572;2023-11-18T04:33:44;63.56;;;28.31;;
15516;SDS011;7860;52.030;5.572;2023-11-18T04:34:44;56.44;;;26.96;;
15516;SDS011;7860;52.030;5.572;2023-11-18T04:35:45;57.94;;;27.07;;
15516;SDS011;7860;52.030;5.572;2023-11-18T04:36:45;59.23;;;27.03;;
15516;SDS011;7860;52.030;5.572;2023-11-18T04:37:45;59.70;;;27.76;;
15516;SDS011;7860;52.030;5.572;2023-11-18T04:38:45;62.92;;;27.04;;
15516;SDS011;7860;52.030;5.572;2023-11-18T04:39:45;59.78;;;27.33;;
15516;SDS011;7860;52.030;5.572;2023-11-18T04:40:46;62.09;;;27.78;;
15516;SDS011;7860;52.030;5.572;2023-11-18T04:41:46;59.67;;;27.21;;
15516;SDS011;7860;52.030;5.572;2023-11-18T04:42:46;56.60;;;26.81;;
15516;SDS011;7860;52.030;5.572;2023-11-18T04:43:46;64.86;;;27.72;;
15516;SDS011;7860;52.030;5.572;2023-11-18T04:44:47;64.52;;;28.16;;
15516;SDS011;7860;52.030;5.572;2023-11-18T04:45:47;62.42;;;28.43;;
15516;SDS011;7860;52.030;5.572;2023-11-18T04:46:47;62.02;;;28.59;;
15516;SDS011;7860;52.030;5.572;2023-11-18T04:47:48;66.20;;;29.59;;
15516;SDS011;7860;52.030;5.572;2023-11-18T04:48:48;60.54;;;28.10;;
15516;SDS011;7860;52.030;5.572;2023-11-18T04:49:48;63.37;;;29.05;;
15516;SDS011;7860;52.030;5.572;2023-11-18T04:50:48;59.79;;;27.72;;
15516;SDS011;7860;52.030;5.572;2023-11-18T04:51:49;57.89;;;28.27;;
15516;SDS011;7860;52.030;5.572;2023-11-18T04:52:49;66.49;;;29.81;;
15516;SDS011;7860;52.030;5.572;2023-11-18T04:53:49;63.55;;;28.79;;
15516;SDS011;7860;52.030;5.572;2023-11-18T04:54:49;62.81;;;29.87;;
15516;SDS011;7860;52.030;5.572;2023-11-18T04:55:49;67.61;;;29.97;;
15516;SDS011;7860;52.030;5.572;2023-11-18T04:56:49;66.03;;;30.47;;
15516;SDS011;7860;52.030;5.572;2023-11-18T04:57:50;65.47;;;30.22;;
15516;SDS011;7860;52.030;5.572;2023-11-18T04:58:50;64.55;;;30.37;;
15516;SDS011;7860;52.030;5.572;2023-11-18T04:59:50;64.35;;;29.58;;
15516;SDS011;7860;52.030;5.572;2023-11-18T05:00:50;62.16;;;28.79;;
15516;SDS011;7860;52.030;5.572;2023-11-18T05:01:51;65.40;;;30.25;;
15516;SDS011;7860;52.030;5.572;2023-11-18T05:02:51;66.60;;;30.67;;
15516;SDS011;7860;52.030;5.572;2023-11-18T05:03:51;67.94;;;31.12;;
15516;SDS011;7860;52.030;5.572;2023-11-18T05:04:51;68.96;;;30.54;;
15516;SDS011;7860;52.030;5.572;2023-11-18T05:05:52;70.41;;;31.42;;
15516;SDS011;7860;52.030;5.572;2023-11-18T05:06:52;73.21;;;31.94;;
15516;SDS011;7860;52.030;5.572;2023-11-18T05:07:52;67.11;;;30.57;;
15516;SDS011;7860;52.030;5.572;2023-11-18T05:08:53;75.45;;;31.65;;
15516;SDS011;7860;52.030;5.572;2023-11-18T05:09:53;71.45;;;31.89;;
15516;SDS011;7860;52.030;5.572;2023-11-18T05:10:54;69.69;;;31.16;;
15516;SDS011;7860;52.030;5.572;2023-11-18T05:11:54;72.82;;;31.14;;
15516;SDS011;7860;52.030;5.572;2023-11-18T05:12:54;66.53;;;31.48;;
15516;SDS011;7860;52.030;5.572;2023-11-18T05:13:54;64.32;;;29.94;;
15516;SDS011;7860;52.030;5.572;2023-11-18T05:14:55;65.44;;;30.40;;
15516;SDS011;7860;52.030;5.572;2023-11-18T05:15:55;62.43;;;29.64;;
15516;SDS011;7860;52.030;5.572;2023-11-18T05:16:55;60.15;;;28.56;;
15516;SDS011;7860;52.030;5.572;2023-11-18T05:17:55;64.01;;;29.62;;
15516;SDS011;7860;52.030;5.572;2023-11-18T05:18:56;63.93;;;30.41;;
15516;SDS011;7860;52.030;5.572;2023-11-18T05:19:56;69.07;;;31.02;;
15516;SDS011;7860;52.030;5.572;2023-11-18T05:20:56;67.86;;;30.21;;
15516;SDS011;7860;52.030;5.572;2023-11-18T05:21:56;65.81;;;29.74;;
15516;SDS011;7860;52.030;5.572;2023-11-18T05:22:57;62.27;;;29.71;;
15516;SDS011;7860;52.030;5.572;2023-11-18T05:23:57;67.80;;;29.53;;
15516;SDS011;7860;52.030;5.572;2023-11-18T05:24:57;62.46;;;29.65;;
15516;SDS011;7860;52.030;5.572;2023-11-18T05:25:58;63.18;;;28.32;;
15516;SDS011;7860;52.030;5.572;2023-11-18T05:27:00;60.78;;;29.25;;
15516;SDS011;7860;52.030;5.572;2023-11-18T05:27:59;64.43;;;29.72;;
15516;SDS011;7860;52.030;5.572;2023-11-18T05:28:59;66.62;;;29.36;;
15516;SDS011;7860;52.030;5.572;2023-11-18T05:29:59;65.13;;;28.84;;
15516;SDS011;7860;52.030;5.572;2023-11-18T05:30:59;57.93;;;28.35;;
15516;SDS011;7860;52.030;5.572;2023-11-18T05:32:00;66.50;;;30.45;;
15516;SDS011;7860;52.030;5.572;2023-11-18T05:33:01;65.74;;;29.89;;
15516;SDS011;7860;52.030;5.572;2023-11-18T05:34:00;66.17;;;30.06;;
15516;SDS011;7860;52.030;5.572;2023-11-18T05:35:01;62.52;;;29.17;;
15516;SDS011;7860;52.030;5.572;2023-11-18T05:36:01;63.96;;;28.90;;
15516;SDS011;7860;52.030;5.572;2023-11-18T05:37:01;64.85;;;29.77;;
15516;SDS011;7860;52.030;5.572;2023-11-18T05:38:01;58.52;;;28.62;;
15516;SDS011;7860;52.030;5.572;2023-11-18T05:39:02;61.68;;;28.67;;
15516;SDS011;7860;52.030;5.572;2023-11-18T05:40:03;59.10;;;28.62;;
15516;SDS011;7860;52.030;5.572;2023-11-18T05:41:02;57.89;;;28.11;;
15516;SDS011;7860;52.030;5.572;2023-11-18T05:42:02;55.59;;;26.92;;
15516;SDS011;7860;52.030;5.572;2023-11-18T05:43:03;59.06;;;27.35;;
15516;SDS011;7860;52.030;5.572;2023-11-18T05:44:03;55.57;;;27.02;;
15516;SDS011;7860;52.030;5.572;2023-11-18T05:45:04;58.50;;;27.55;;
15516;SDS011;7860;52.030;5.572;2023-11-18T05:46:04;56.62;;;27.48;;
15516;SDS011;7860;52.030;5.572;2023-11-18T05:47:05;54.05;;;26.46;;
15516;SDS011;7860;52.030;5.572;2023-11-18T05:48:05;57.58;;;27.21;;
15516;SDS011;7860;52.030;5.572;2023-11-18T05:49:05;58.91;;;27.33;;
15516;SDS011;7860;52.030;5.572;2023-11-18T05:50:06;56.78;;;26.06;;
15516;SDS011;7860;52.030;5.572;2023-11-18T05:51:06;53.11;;;25.83;;
15516;SDS011;7860;52.030;5.572;2023-11-18T05:52:06;51.69;;;25.09;;
15516;SDS011;7860;52.030;5.572;2023-11-18T05:53:06;53.64;;;25.71;;
15516;SDS011;7860;52.030;5.572;2023-11-18T05:54:07;53.70;;;25.64;;
15516;SDS011;7860;52.030;5.572;2023-11-18T05:55:07;52.98;;;26.17;;
15516;SDS011;7860;52.030;5.572;2023-11-18T05:56:07;51.08;;;25.19;;
15516;SDS011;7860;52.030;5.572;2023-11-18T05:57:08;53.08;;;26.20;;